Time,TemperatureF,DewpointF,PressureIn,WindDirection,WindDirectionDegrees,WindSpeedMPH,WindSpeedGustMPH,Humidity,HourlyPrecipIn,Conditions,Clouds,dailyrainin,SoftwareType,DateUTC
2013-08-21 00:00:00,74.8,69.4,29.89,North,11,1.0,-999.0,83,0.00,,,0.00,PyWeather,2013-08-21 10:00:00,
2013-08-21 00:05:00,74.8,69.4,29.89,North,11,0.0,-999.0,83,0.00,,,0.00,PyWeather,2013-08-21 10:05:00,
2013-08-21 00:10:00,74.7,69.3,29.88,North,11,0.0,-999.0,83,0.00,,,0.00,PyWeather,2013-08-21 10:10:00,
2013-08-21 00:15:00,74.6,69.2,29.88,North,11,0.0,-999.0,83,0.00,,,0.00,PyWeather,2013-08-21 10:15:00,
2013-08-21 00:21:00,74.6,69.2,29.88,North,360,1.0,-999.0,83,0.00,,,0.00,PyWeather,2013-08-21 10:21:00,
2013-08-21 00:26:00,74.7,68.9,29.88,North,11,1.0,-999.0,82,0.00,,,0.00,PyWeather,2013-08-21 10:26:00,
2013-08-21 00:31:00,74.5,68.7,29.88,NE,51,0.0,-999.0,82,0.00,,,0.00,PyWeather,2013-08-21 10:31:00,
2013-08-21 00:36:00,74.4,69.0,29.88,ENE,57,0.0,-999.0,83,0.00,,,0.00,PyWeather,2013-08-21 10:36:00,
2013-08-21 00:41:00,74.5,69.1,29.88,NE,51,1.0,-999.0,83,0.00,,,0.00,PyWeather,2013-08-21 10:41:00,
2013-08-21 00:46:00,74.5,69.1,29.88,NE,51,1.0,-999.0,83,0.00,,,0.00,PyWeather,2013-08-21 10:46:00,
2013-08-21 00:51:00,74.4,69.0,29.88,NE,38,1.0,-999.0,83,0.00,,,0.00,PyWeather,2013-08-21 10:51:00,
2013-08-21 00:56:00,74.5,69.1,29.87,NE,38,2.0,-999.0,83,0.00,,,0.00,PyWeather,2013-08-21 10:56:00,
2013-08-21 01:01:00,74.5,69.1,29.88,NE,38,3.0,-999.0,83,0.00,,,0.00,PyWeather,2013-08-21 11:01:00,
2013-08-21 01:06:00,74.4,69.0,29.87,NE,37,4.0,-999.0,83,0.00,,,0.00,PyWeather,2013-08-21 11:06:00,
2013-08-21 01:11:00,74.4,69.0,29.87,NNE,28,4.0,-999.0,83,0.00,,,0.00,PyWeather,2013-08-21 11:11:00,
2013-08-21 01:16:00,74.5,69.1,29.87,NNE,30,4.0,-999.0,83,0.00,,,0.00,PyWeather,2013-08-21 11:16:00,
2013-08-21 01:21:00,74.6,69.2,29.87,NNE,30,3.0,-999.0,83,0.00,,,0.00,PyWeather,2013-08-21 11:21:00,
2013-08-21 01:26:00,74.5,69.1,29.87,NNE,30,3.0,-999.0,83,0.00,,,0.00,PyWeather,2013-08-21 11:26:00,
2013-08-21 01:31:00,74.5,69.1,29.87,NNE,32,3.0,-999.0,83,0.00,,,0.00,PyWeather,2013-08-21 11:31:00,
2013-08-21 01:36:00,74.5,69.1,29.87,NE,35,3.0,-999.0,83,0.00,,,0.00,PyWeather,2013-08-21 11:36:00,
2013-08-21 01:41:00,74.7,69.3,29.86,NE,42,3.0,-999.0,83,0.00,,,0.00,PyWeather,2013-08-21 11:41:00,
2013-08-21 01:46:00,74.8,69.4,29.87,ENE,58,2.0,-999.0,83,0.00,,,0.00,PyWeather,2013-08-21 11:46:00,
2013-08-21 01:51:00,74.6,68.8,29.87,ENE,62,2.0,-999.0,82,0.00,,,0.00,PyWeather,2013-08-21 11:51:00,
2013-08-21 01:56:00,74.4,68.6,29.86,ENE,63,0.0,-999.0,82,0.00,,,0.00,PyWeather,2013-08-21 11:56:00,
2013-08-21 02:02:00,74.0,68.2,29.86,ENE,69,0.0,-999.0,82,0.00,,,0.00,PyWeather,2013-08-21 12:02:00,
2013-08-21 02:07:00,73.8,68.4,29.86,East,92,0.0,-999.0,83,0.00,,,0.00,PyWeather,2013-08-21 12:07:00,
2013-08-21 02:12:00,73.5,68.1,29.86,East,91,0.0,-999.0,83,0.00,,,0.00,PyWeather,2013-08-21 12:12:00,
2013-08-21 02:17:00,73.3,67.9,29.86,East,90,0.0,-999.0,83,0.00,,,0.00,PyWeather,2013-08-21 12:17:00,
2013-08-21 02:22:00,73.0,67.6,29.86,East,90,0.0,-999.0,83,0.00,,,0.00,PyWeather,2013-08-21 12:22:00,
2013-08-21 02:27:00,72.8,67.4,29.86,East,89,0.0,-999.0,83,0.00,,,0.00,PyWeather,2013-08-21 12:27:00,
2013-08-21 02:32:00,72.7,67.3,29.86,ENE,74,1.0,-999.0,83,0.00,,,0.00,PyWeather,2013-08-21 12:32:00,
2013-08-21 02:37:00,72.6,67.2,29.86,ENE,74,2.0,-999.0,83,0.00,,,0.00,PyWeather,2013-08-21 12:37:00,
2013-08-21 02:42:00,72.6,67.2,29.86,ENE,76,1.0,-999.0,83,0.00,,,0.00,PyWeather,2013-08-21 12:42:00,
2013-08-21 02:47:00,72.4,67.0,29.86,ENE,74,0.0,-999.0,83,0.00,,,0.00,PyWeather,2013-08-21 12:47:00,
2013-08-21 02:52:00,72.2,66.8,29.86,ENE,74,0.0,-999.0,83,0.00,,,0.00,PyWeather,2013-08-21 12:52:00,
2013-08-21 02:57:00,72.1,66.7,29.86,ENE,74,0.0,-999.0,83,0.00,,,0.00,PyWeather,2013-08-21 12:57:00,
2013-08-21 03:02:00,72.2,67.1,29.86,ENE,74,0.0,-999.0,84,0.00,,,0.00,PyWeather,2013-08-21 13:02:00,
2013-08-21 03:07:00,72.0,66.9,29.86,ENE,74,0.0,-999.0,84,0.00,,,0.00,PyWeather,2013-08-21 13:07:00,
2013-08-21 03:12:00,71.9,66.8,29.86,ENE,74,0.0,-999.0,84,0.00,,,0.00,PyWeather,2013-08-21 13:12:00,
2013-08-21 03:17:00,71.7,66.6,29.86,ENE,74,0.0,-999.0,84,0.00,,,0.00,PyWeather,2013-08-21 13:17:00,
2013-08-21 03:22:00,71.6,66.5,29.86,ENE,76,0.0,-999.0,84,0.00,,,0.00,PyWeather,2013-08-21 13:22:00,
2013-08-21 03:27:00,71.6,66.9,29.85,ENE,75,0.0,-999.0,85,0.00,,,0.00,PyWeather,2013-08-21 13:27:00,
2013-08-21 03:32:00,71.6,66.9,29.85,ENE,75,0.0,-999.0,85,0.00,,,0.00,PyWeather,2013-08-21 13:32:00,
2013-08-21 03:37:00,71.6,66.9,29.85,ENE,75,0.0,-999.0,85,0.00,,,0.00,PyWeather,2013-08-21 13:37:00,
2013-08-21 03:42:00,71.7,67.0,29.85,ENE,76,0.0,-999.0,85,0.00,,,0.00,PyWeather,2013-08-21 13:42:00,
2013-08-21 03:47:00,71.8,67.1,29.85,ENE,75,0.0,-999.0,85,0.00,,,0.00,PyWeather,2013-08-21 13:47:00,
2013-08-21 03:52:00,71.8,67.1,29.85,ENE,75,0.0,-999.0,85,0.00,,,0.00,PyWeather,2013-08-21 13:52:00,
2013-08-21 03:57:00,71.7,67.0,29.85,ENE,74,0.0,-999.0,85,0.00,,,0.00,PyWeather,2013-08-21 13:57:00,
2013-08-21 04:02:00,71.7,67.0,29.85,ENE,74,0.0,-999.0,85,0.00,,,0.00,PyWeather,2013-08-21 14:02:00,
2013-08-21 04:07:00,71.9,67.2,29.85,ENE,74,0.0,-999.0,85,0.00,,,0.00,PyWeather,2013-08-21 14:07:00,
2013-08-21 04:12:00,72.0,67.3,29.85,ENE,74,0.0,-999.0,85,0.00,,,0.00,PyWeather,2013-08-21 14:12:00,
2013-08-21 04:17:00,72.1,67.4,29.85,ENE,74,0.0,-999.0,85,0.00,,,0.00,PyWeather,2013-08-21 14:17:00,
2013-08-21 04:22:00,72.2,67.5,29.85,ENE,75,0.0,-999.0,85,0.00,,,0.00,PyWeather,2013-08-21 14:22:00,
2013-08-21 04:27:00,72.3,67.6,29.85,ENE,76,0.0,-999.0,85,0.00,,,0.00,PyWeather,2013-08-21 14:27:00,
2013-08-21 04:32:00,72.4,67.7,29.85,ENE,75,0.0,-999.0,85,0.00,,,0.00,PyWeather,2013-08-21 14:32:00,
2013-08-21 04:37:00,72.3,67.6,29.85,ENE,76,0.0,-999.0,85,0.00,,,0.00,PyWeather,2013-08-21 14:37:00,
2013-08-21 04:42:00,72.3,67.6,29.85,ENE,76,0.0,-999.0,85,0.00,,,0.00,PyWeather,2013-08-21 14:42:00,
2013-08-21 04:47:00,72.3,67.6,29.85,ENE,74,0.0,-999.0,85,0.00,,,0.00,PyWeather,2013-08-21 14:47:00,
2013-08-21 04:52:00,72.2,67.5,29.85,ENE,75,0.0,-999.0,85,0.00,,,0.00,PyWeather,2013-08-21 14:52:00,
2013-08-21 04:57:00,72.0,67.3,29.86,ENE,75,0.0,-999.0,85,0.00,,,0.00,PyWeather,2013-08-21 14:57:00,
2013-08-21 05:02:00,71.9,67.2,29.86,ENE,76,0.0,-999.0,85,0.00,,,0.00,PyWeather,2013-08-21 15:02:00,
2013-08-21 05:07:00,71.7,67.0,29.86,ENE,74,0.0,-999.0,85,0.00,,,0.00,PyWeather,2013-08-21 15:07:00,
2013-08-21 05:13:00,71.5,66.8,29.86,ENE,76,0.0,-999.0,85,0.00,,,0.00,PyWeather,2013-08-21 15:13:00,
2013-08-21 05:21:00,71.3,66.6,29.86,ENE,74,0.0,-999.0,85,0.00,,,0.00,PyWeather,2013-08-21 15:21:00,
2013-08-21 05:27:00,71.1,66.4,29.86,ENE,75,0.0,-999.0,85,0.00,,,0.00,PyWeather,2013-08-21 15:27:00,
2013-08-21 05:33:00,70.8,66.1,29.86,ENE,74,0.0,-999.0,85,0.00,,,0.00,PyWeather,2013-08-21 15:33:00,
2013-08-21 05:38:00,70.6,65.9,29.86,ENE,74,0.0,-999.0,85,0.00,,,0.00,PyWeather,2013-08-21 15:38:00,
2013-08-21 05:43:00,70.4,65.7,29.86,ENE,76,0.0,-999.0,85,0.00,,,0.00,PyWeather,2013-08-21 15:43:00,
2013-08-21 05:48:00,70.5,65.8,29.86,ENE,75,0.0,-999.0,85,0.00,,,0.00,PyWeather,2013-08-21 15:48:00,
2013-08-21 05:53:00,70.4,65.7,29.86,ENE,76,0.0,-999.0,85,0.00,,,0.00,PyWeather,2013-08-21 15:53:00,
2013-08-21 05:58:00,70.3,65.6,29.86,ENE,75,0.0,-999.0,85,0.00,,,0.00,PyWeather,2013-08-21 15:58:00,
2013-08-21 06:03:00,70.3,65.6,29.86,ENE,74,0.0,-999.0,85,0.00,,,0.00,PyWeather,2013-08-21 16:03:00,
2013-08-21 06:08:00,70.4,65.7,29.87,ENE,75,0.0,-999.0,85,0.00,,,0.00,PyWeather,2013-08-21 16:08:00,
2013-08-21 06:13:00,70.4,65.7,29.87,ENE,75,0.0,-999.0,85,0.00,,,0.00,PyWeather,2013-08-21 16:13:00,
2013-08-21 06:18:00,70.4,65.7,29.87,ENE,74,0.0,-999.0,85,0.00,,,0.00,PyWeather,2013-08-21 16:18:00,
2013-08-21 06:23:00,70.8,66.4,29.87,ENE,74,0.0,-999.0,86,0.00,,,0.00,PyWeather,2013-08-21 16:23:00,
2013-08-21 06:29:00,71.2,66.8,29.87,ENE,74,0.0,-999.0,86,0.00,,,0.00,PyWeather,2013-08-21 16:29:00,
2013-08-21 06:34:00,71.4,67.0,29.87,ENE,75,0.0,-999.0,86,0.00,,,0.00,PyWeather,2013-08-21 16:34:00,
2013-08-21 06:40:00,72.1,67.7,29.87,ENE,75,0.0,-999.0,86,0.00,,,0.00,PyWeather,2013-08-21 16:40:00,
2013-08-21 06:45:00,72.6,68.2,29.87,ENE,74,0.0,-999.0,86,0.00,,,0.00,PyWeather,2013-08-21 16:45:00,
2013-08-21 06:50:00,73.2,68.8,29.87,ENE,75,0.0,-999.0,86,0.00,,,0.00,PyWeather,2013-08-21 16:50:00,
2013-08-21 06:55:00,73.7,68.9,29.87,North,5,1.0,-999.0,85,0.00,,,0.00,PyWeather,2013-08-21 16:55:00,
2013-08-21 07:00:00,74.1,69.3,29.87,North,11,1.0,-999.0,85,0.00,,,0.00,PyWeather,2013-08-21 17:00:00,
2013-08-21 07:05:00,74.5,69.4,29.87,North,11,0.0,-999.0,84,0.00,,,0.00,PyWeather,2013-08-21 17:05:00,
2013-08-21 07:10:00,75.0,69.5,29.88,NNE,13,0.0,-999.0,83,0.00,,,0.00,PyWeather,2013-08-21 17:10:00,
2013-08-21 07:15:00,75.4,69.9,29.88,NNE,13,0.0,-999.0,83,0.00,,,0.00,PyWeather,2013-08-21 17:15:00,
2013-08-21 07:20:00,75.7,69.9,29.88,NNE,18,1.0,-999.0,82,0.00,,,0.00,PyWeather,2013-08-21 17:20:00,
2013-08-21 07:25:00,76.1,69.9,29.88,NNE,28,1.0,-999.0,81,0.00,,,0.00,PyWeather,2013-08-21 17:25:00,
2013-08-21 07:30:00,76.5,70.3,29.88,NE,34,2.0,-999.0,81,0.00,,,0.00,PyWeather,2013-08-21 17:30:00,
2013-08-21 07:35:00,76.7,70.2,29.88,NE,34,1.0,-999.0,80,0.00,,,0.00,PyWeather,2013-08-21 17:35:00,
2013-08-21 07:41:00,76.9,70.4,29.88,NE,45,2.0,-999.0,80,0.00,,,0.00,PyWeather,2013-08-21 17:41:00,
2013-08-21 07:46:00,77.1,70.2,29.88,North,360,2.0,-999.0,79,0.00,,,0.00,PyWeather,2013-08-21 17:46:00,
2013-08-21 07:51:00,77.2,69.9,29.88,North,9,2.0,-999.0,78,0.00,,,0.00,PyWeather,2013-08-21 17:51:00,
2013-08-21 07:56:00,77.2,69.6,29.88,NNE,23,2.0,-999.0,77,0.00,,,0.00,PyWeather,2013-08-21 17:56:00,
2013-08-21 08:01:00,77.3,68.9,29.88,NNE,22,3.0,-999.0,75,0.00,,,0.00,PyWeather,2013-08-21 18:01:00,
2013-08-21 08:06:00,77.5,69.1,29.88,NNE,19,5.0,-999.0,75,0.00,,,0.00,PyWeather,2013-08-21 18:06:00,
2013-08-21 08:11:00,77.7,69.7,29.88,NNE,29,5.0,-999.0,76,0.00,,,0.00,PyWeather,2013-08-21 18:11:00,
2013-08-21 08:16:00,77.6,69.2,29.88,NNE,26,5.0,-999.0,75,0.00,,,0.00,PyWeather,2013-08-21 18:16:00,
2013-08-21 08:21:00,77.5,69.1,29.89,North,5,6.0,-999.0,75,0.00,,,0.00,PyWeather,2013-08-21 18:21:00,
2013-08-21 08:26:00,77.7,69.7,29.89,North,355,6.0,-999.0,76,0.00,,,0.00,PyWeather,2013-08-21 18:26:00,
2013-08-21 08:31:00,78.3,69.9,29.89,NNE,13,5.0,-999.0,75,0.00,,,0.00,PyWeather,2013-08-21 18:31:00,
2013-08-21 08:36:00,78.7,69.9,29.89,NNW,343,4.0,-999.0,74,0.00,,,0.00,PyWeather,2013-08-21 18:36:00,
2013-08-21 08:41:00,78.9,69.7,29.89,North,5,3.0,-999.0,73,0.00,,,0.00,PyWeather,2013-08-21 18:41:00,
2013-08-21 08:46:00,79.3,69.7,29.89,NE,40,4.0,-999.0,72,0.00,,,0.00,PyWeather,2013-08-21 18:46:00,
2013-08-21 08:51:00,79.7,70.1,29.89,ENE,61,4.0,-999.0,72,0.00,,,0.00,PyWeather,2013-08-21 18:51:00,
2013-08-21 08:56:00,80.1,69.7,29.89,NNE,21,3.0,-999.0,70,0.00,,,0.00,PyWeather,2013-08-21 18:56:00,
2013-08-21 09:01:00,80.0,68.7,29.89,North,351,4.0,-999.0,68,0.00,,,0.00,PyWeather,2013-08-21 19:01:00,
2013-08-21 09:06:00,80.2,68.9,29.89,NE,41,6.0,-999.0,68,0.00,,,0.00,PyWeather,2013-08-21 19:06:00,
2013-08-21 09:11:00,80.6,68.4,29.89,North,5,5.0,-999.0,66,0.00,,,0.00,PyWeather,2013-08-21 19:11:00,
2013-08-21 09:16:00,80.7,68.5,29.89,North,360,4.0,-999.0,66,0.00,,,0.00,PyWeather,2013-08-21 19:16:00,
2013-08-21 09:21:00,80.8,68.6,29.89,NNE,26,4.0,-999.0,66,0.00,,,0.00,PyWeather,2013-08-21 19:21:00,
2013-08-21 09:26:00,80.9,68.3,29.89,North,355,5.0,-999.0,65,0.00,,,0.00,PyWeather,2013-08-21 19:26:00,
2013-08-21 09:31:00,81.0,68.8,29.89,NNE,15,4.0,-999.0,66,0.00,,,0.00,PyWeather,2013-08-21 19:31:00,
2013-08-21 09:36:00,81.1,68.5,29.89,North,11,4.0,-999.0,65,0.00,,,0.00,PyWeather,2013-08-21 19:36:00,
2013-08-21 09:41:00,81.2,68.1,29.89,NNW,346,3.0,-999.0,64,0.00,,,0.00,PyWeather,2013-08-21 19:41:00,
2013-08-21 09:46:00,81.4,68.3,29.89,NW,318,2.0,-999.0,64,0.00,,,0.00,PyWeather,2013-08-21 19:46:00,
2013-08-21 09:51:00,81.9,68.3,29.88,ENE,63,2.0,-999.0,63,0.00,,,0.00,PyWeather,2013-08-21 19:51:00,
2013-08-21 09:56:00,82.8,69.2,29.88,NW,321,3.0,13.0,63,0.00,,,0.00,PyWeather,2013-08-21 19:56:00,
2013-08-21 10:01:00,82.7,68.6,29.88,North,5,6.0,13.0,62,0.00,,,0.00,PyWeather,2013-08-21 20:01:00,
2013-08-21 10:06:00,82.3,68.2,29.88,NE,38,5.0,-999.0,62,0.00,,,0.00,PyWeather,2013-08-21 20:06:00,
2013-08-21 10:12:00,82.7,68.6,29.88,NNW,338,4.0,-999.0,62,0.00,,,0.00,PyWeather,2013-08-21 20:12:00,
2013-08-21 10:17:00,83.0,68.9,29.88,NNW,343,7.0,13.0,62,0.00,,,0.00,PyWeather,2013-08-21 20:17:00,
2013-08-21 10:22:00,83.2,68.6,29.88,NNW,342,8.0,13.0,61,0.00,,,0.00,PyWeather,2013-08-21 20:22:00,
2013-08-21 10:27:00,83.4,68.8,29.88,NNW,339,8.0,-999.0,61,0.00,,,0.00,PyWeather,2013-08-21 20:27:00,
2013-08-21 10:32:00,83.1,69.0,29.88,NNW,332,8.0,-999.0,62,0.00,,,0.00,PyWeather,2013-08-21 20:32:00,
2013-08-21 10:37:00,83.0,68.9,29.88,NNW,342,8.0,-999.0,62,0.00,,,0.00,PyWeather,2013-08-21 20:37:00,
2013-08-21 10:42:00,83.4,69.3,29.88,North,9,6.0,-999.0,62,0.00,,,0.00,PyWeather,2013-08-21 20:42:00,
2013-08-21 10:47:00,83.8,69.2,29.88,North,360,6.0,-999.0,61,0.00,,,0.00,PyWeather,2013-08-21 20:47:00,
2013-08-21 10:52:00,83.6,69.0,29.88,NW,304,8.0,-999.0,61,0.00,,,0.00,PyWeather,2013-08-21 20:52:00,
2013-08-21 10:57:00,83.5,69.4,29.87,NE,34,8.0,-999.0,62,0.00,,,0.00,PyWeather,2013-08-21 20:57:00,
2013-08-21 11:02:00,84.0,69.4,29.87,NNW,330,7.0,-999.0,61,0.00,,,0.00,PyWeather,2013-08-21 21:02:00,
2013-08-21 11:07:00,84.1,69.5,29.87,NNW,328,6.0,-999.0,61,0.00,,,0.00,PyWeather,2013-08-21 21:07:00,
2013-08-21 11:12:00,83.9,69.8,29.87,NW,306,6.0,-999.0,62,0.00,,,0.00,PyWeather,2013-08-21 21:12:00,
2013-08-21 11:17:00,84.0,70.3,29.87,North,350,9.0,15.0,63,0.00,,,0.00,PyWeather,2013-08-21 21:17:00,
2013-08-21 11:22:00,83.9,70.2,29.86,NE,36,7.0,15.0,63,0.00,,,0.00,PyWeather,2013-08-21 21:22:00,
2013-08-21 11:27:00,84.5,70.3,29.86,NW,319,5.0,13.0,62,0.00,,,0.00,PyWeather,2013-08-21 21:27:00,
2013-08-21 11:32:00,83.9,70.2,29.86,NNW,344,7.0,13.0,63,0.00,,,0.00,PyWeather,2013-08-21 21:32:00,
2013-08-21 11:37:00,84.0,70.8,29.86,NW,306,8.0,-999.0,64,0.00,,,0.00,PyWeather,2013-08-21 21:37:00,
2013-08-21 11:42:00,83.9,70.7,29.86,NNW,329,8.0,-999.0,64,0.00,,,0.00,PyWeather,2013-08-21 21:42:00,
2013-08-21 11:47:00,84.7,71.0,29.86,NNE,17,8.0,15.0,63,0.00,,,0.00,PyWeather,2013-08-21 21:47:00,
2013-08-21 11:52:00,84.8,71.1,29.86,ENE,64,7.0,15.0,63,0.00,,,0.00,PyWeather,2013-08-21 21:52:00,
2013-08-21 11:57:00,84.8,70.6,29.85,NW,320,7.0,14.0,62,0.00,,,0.00,PyWeather,2013-08-21 21:57:00,
2013-08-21 12:02:00,84.9,70.7,29.85,North,360,6.0,14.0,62,0.00,,,0.00,PyWeather,2013-08-21 22:02:00,
2013-08-21 12:07:00,85.4,71.2,29.85,North,5,5.0,-999.0,62,0.00,,,0.00,PyWeather,2013-08-21 22:07:00,
2013-08-21 12:12:00,85.3,71.6,29.85,NNW,338,6.0,-999.0,63,0.00,,,0.00,PyWeather,2013-08-21 22:12:00,
2013-08-21 12:17:00,85.5,71.7,29.85,North,355,7.0,15.0,63,0.00,,,0.00,PyWeather,2013-08-21 22:17:00,
2013-08-21 12:22:00,85.4,70.7,29.85,North,9,8.0,15.0,61,0.00,,,0.00,PyWeather,2013-08-21 22:22:00,
2013-08-21 12:27:00,85.3,71.1,29.85,NNW,327,9.0,-999.0,62,0.00,,,0.00,PyWeather,2013-08-21 22:27:00,
2013-08-21 12:32:00,84.9,71.2,29.85,NNW,341,9.0,-999.0,63,0.00,,,0.00,PyWeather,2013-08-21 22:32:00,
2013-08-21 12:37:00,85.0,71.3,29.85,NNE,29,9.0,-999.0,63,0.00,,,0.00,PyWeather,2013-08-21 22:37:00,
2013-08-21 12:42:00,85.0,71.3,29.84,NNW,345,8.0,-999.0,63,0.00,,,0.00,PyWeather,2013-08-21 22:42:00,
2013-08-21 12:47:00,84.9,71.2,29.84,NW,311,9.0,-999.0,63,0.00,,,0.00,PyWeather,2013-08-21 22:47:00,
2013-08-21 12:52:00,85.3,71.6,29.84,North,360,10.0,-999.0,63,0.00,,,0.00,PyWeather,2013-08-21 22:52:00,
2013-08-21 12:57:00,85.2,71.0,29.84,NNW,335,10.0,17.0,62,0.00,,,0.00,PyWeather,2013-08-21 22:57:00,
2013-08-21 13:02:00,85.9,70.7,29.84,NNW,338,10.0,17.0,60,0.00,,,0.00,PyWeather,2013-08-21 23:02:00,
2013-08-21 13:07:00,85.2,71.0,29.84,NNW,345,10.0,-999.0,62,0.00,,,0.00,PyWeather,2013-08-21 23:07:00,
2013-08-21 13:12:00,85.7,70.5,29.84,North,360,9.0,-999.0,60,0.00,,,0.00,PyWeather,2013-08-21 23:12:00,
2013-08-21 13:17:00,85.6,70.9,29.84,North,360,8.0,16.0,61,0.00,,,0.00,PyWeather,2013-08-21 23:17:00,
2013-08-21 13:22:00,85.8,71.1,29.83,NNW,342,8.0,16.0,61,0.00,,,0.00,PyWeather,2013-08-21 23:22:00,
2013-08-21 13:27:00,85.6,70.4,29.83,North,360,9.0,15.0,60,0.00,,,0.00,PyWeather,2013-08-21 23:27:00,
2013-08-21 13:32:00,85.6,70.4,29.83,North,5,8.0,15.0,60,0.00,,,0.00,PyWeather,2013-08-21 23:32:00,
2013-08-21 13:37:00,85.5,70.8,29.83,NNE,20,9.0,18.0,61,0.00,,,0.00,PyWeather,2013-08-21 23:37:00,
2013-08-21 13:42:00,86.5,70.2,29.83,North,355,10.0,18.0,58,0.00,,,0.00,PyWeather,2013-08-21 23:42:00,
2013-08-21 13:47:00,85.6,69.9,29.83,North,351,10.0,18.0,59,0.00,,,0.00,PyWeather,2013-08-21 23:47:00,
2013-08-21 13:52:00,86.1,69.9,29.83,North,5,9.0,18.0,58,0.00,,,0.00,PyWeather,2013-08-21 23:52:00,
2013-08-21 13:57:00,85.7,69.0,29.83,NNE,19,9.0,15.0,57,0.00,,,0.00,PyWeather,2013-08-21 23:57:00,
2013-08-21 14:03:00,86.2,68.9,29.83,NNW,343,9.0,15.0,56,0.00,,,0.00,PyWeather,2013-08-22 00:03:00,
2013-08-21 14:08:00,85.7,69.5,29.82,North,5,9.0,-999.0,58,0.00,,,0.00,PyWeather,2013-08-22 00:08:00,
2013-08-21 14:13:00,85.9,69.7,29.82,North,360,10.0,-999.0,58,0.00,,,0.00,PyWeather,2013-08-22 00:13:00,
2013-08-21 14:18:00,86.6,68.7,29.82,NNW,336,12.0,19.0,55,0.00,,,0.00,PyWeather,2013-08-22 00:18:00,
2013-08-21 14:23:00,85.9,69.1,29.82,NNW,344,11.0,19.0,57,0.00,,,0.00,PyWeather,2013-08-22 00:23:00,
2013-08-21 14:28:00,85.8,68.5,29.82,NNW,344,11.0,-999.0,56,0.00,,,0.00,PyWeather,2013-08-22 00:28:00,
2013-08-21 14:33:00,85.3,68.6,29.81,NNW,340,13.0,-999.0,57,0.00,,,0.00,PyWeather,2013-08-22 00:33:00,
2013-08-21 14:38:00,85.2,68.0,29.81,North,355,14.0,-999.0,56,0.00,,,0.00,PyWeather,2013-08-22 00:38:00,
2013-08-21 14:43:00,85.5,70.3,29.81,NW,311,15.0,-999.0,60,0.00,,,0.00,PyWeather,2013-08-22 00:43:00,
2013-08-21 14:48:00,85.7,69.0,29.81,NNW,331,14.0,-999.0,57,0.00,,,0.00,PyWeather,2013-08-22 00:48:00,
2013-08-21 14:53:00,85.2,70.0,29.81,NW,321,14.0,-999.0,60,0.00,,,0.00,PyWeather,2013-08-22 00:53:00,
2013-08-21 14:58:00,85.4,69.7,29.81,North,355,14.0,-999.0,59,0.00,,,0.00,PyWeather,2013-08-22 00:58:00,
2013-08-21 15:03:00,85.3,70.6,29.81,NNW,338,14.0,-999.0,61,0.00,,,0.00,PyWeather,2013-08-22 01:03:00,
2013-08-21 15:08:00,85.8,70.1,29.81,NNW,335,14.0,-999.0,59,0.00,,,0.00,PyWeather,2013-08-22 01:08:00,
2013-08-21 15:13:00,85.6,70.4,29.80,NNW,346,14.0,-999.0,60,0.00,,,0.00,PyWeather,2013-08-22 01:13:00,
2013-08-21 15:18:00,84.8,69.6,29.81,NW,319,15.0,-999.0,60,0.00,,,0.00,PyWeather,2013-08-22 01:18:00,
2013-08-21 15:23:00,84.7,70.5,29.80,NNW,336,15.0,-999.0,62,0.00,,,0.00,PyWeather,2013-08-22 01:23:00,
2013-08-21 15:28:00,85.5,71.7,29.80,NW,319,14.0,-999.0,63,0.00,,,0.00,PyWeather,2013-08-22 01:28:00,
2013-08-21 15:33:00,85.1,72.3,29.80,NNW,329,15.0,-999.0,65,0.00,,,0.00,PyWeather,2013-08-22 01:33:00,
2013-08-21 15:38:00,84.8,71.1,29.80,NW,324,16.0,-999.0,63,0.00,,,0.00,PyWeather,2013-08-22 01:38:00,
2013-08-21 15:43:00,84.4,71.2,29.80,NNW,344,16.0,-999.0,64,0.00,,,0.00,PyWeather,2013-08-22 01:43:00,
2013-08-21 15:48:00,84.5,71.3,29.80,North,355,17.0,-999.0,64,0.00,,,0.00,PyWeather,2013-08-22 01:48:00,
2013-08-21 15:53:00,84.1,71.3,29.80,NNW,340,15.0,-999.0,65,0.00,,,0.00,PyWeather,2013-08-22 01:53:00,
2013-08-21 15:58:00,84.3,70.1,29.80,North,355,14.0,23.0,62,0.00,,,0.00,PyWeather,2013-08-22 01:58:00,
2013-08-21 16:03:00,84.3,70.1,29.80,NNW,336,14.0,23.0,62,0.00,,,0.00,PyWeather,2013-08-22 02:03:00,
2013-08-21 16:08:00,84.4,70.7,29.80,North,350,14.0,-999.0,63,0.00,,,0.00,PyWeather,2013-08-22 02:08:00,
2013-08-21 16:13:00,84.5,71.3,29.80,NNW,343,14.0,-999.0,64,0.00,,,0.00,PyWeather,2013-08-22 02:13:00,
2013-08-21 16:18:00,84.3,71.1,29.80,NNW,347,15.0,22.0,64,0.00,,,0.00,PyWeather,2013-08-22 02:18:00,
2013-08-21 16:23:00,83.4,71.1,29.80,North,5,16.0,22.0,66,0.00,,,0.00,PyWeather,2013-08-22 02:23:00,
2013-08-21 16:28:00,83.3,70.6,29.80,North,351,15.0,-999.0,65,0.00,,,0.00,PyWeather,2013-08-22 02:28:00,
2013-08-21 16:33:00,83.7,70.9,29.80,NNW,343,14.0,-999.0,65,0.00,,,0.00,PyWeather,2013-08-22 02:33:00,
2013-08-21 16:38:00,83.5,70.8,29.80,North,355,15.0,-999.0,65,0.00,,,0.00,PyWeather,2013-08-22 02:38:00,
2013-08-21 16:43:00,83.4,71.1,29.80,NNW,331,15.0,-999.0,66,0.00,,,0.00,PyWeather,2013-08-22 02:43:00,
2013-08-21 16:48:00,83.3,71.0,29.81,NNW,338,14.0,-999.0,66,0.00,,,0.00,PyWeather,2013-08-22 02:48:00,
2013-08-21 16:53:00,83.7,70.9,29.80,North,5,13.0,-999.0,65,0.00,,,0.00,PyWeather,2013-08-22 02:53:00,
2013-08-21 16:58:00,83.6,71.3,29.80,NNW,327,14.0,20.0,66,0.00,,,0.00,PyWeather,2013-08-22 02:58:00,
2013-08-21 17:03:00,83.1,70.8,29.81,NNW,329,14.0,20.0,66,0.00,,,0.00,PyWeather,2013-08-22 03:03:00,
2013-08-21 17:08:00,83.2,70.9,29.81,NNW,327,15.0,-999.0,66,0.00,,,0.00,PyWeather,2013-08-22 03:08:00,
2013-08-21 17:13:00,82.7,70.4,29.81,NNW,348,14.0,-999.0,66,0.00,,,0.00,PyWeather,2013-08-22 03:13:00,
2013-08-21 17:18:00,82.7,70.9,29.81,NNW,337,13.0,-999.0,67,0.00,,,0.00,PyWeather,2013-08-22 03:18:00,
2013-08-21 17:23:00,82.8,70.5,29.81,NNE,12,13.0,-999.0,66,0.00,,,0.00,PyWeather,2013-08-22 03:23:00,
2013-08-21 17:28:00,82.9,71.1,29.81,North,355,13.0,-999.0,67,0.00,,,0.00,PyWeather,2013-08-22 03:28:00,
2013-08-21 17:33:00,82.8,70.5,29.81,North,351,13.0,-999.0,66,0.00,,,0.00,PyWeather,2013-08-22 03:33:00,
2013-08-21 17:38:00,82.3,70.5,29.82,NNW,335,13.0,-999.0,67,0.00,,,0.00,PyWeather,2013-08-22 03:38:00,
2013-08-21 17:43:00,82.0,70.6,29.82,NNW,347,13.0,-999.0,68,0.00,,,0.00,PyWeather,2013-08-22 03:43:00,
2013-08-21 17:48:00,81.6,70.7,29.82,NNW,327,13.0,-999.0,69,0.00,,,0.00,PyWeather,2013-08-22 03:48:00,
2013-08-21 17:53:00,81.6,70.7,29.82,North,350,12.0,-999.0,69,0.00,,,0.00,PyWeather,2013-08-22 03:53:00,
2013-08-21 17:58:00,81.3,70.4,29.82,North,355,11.0,-999.0,69,0.00,,,0.00,PyWeather,2013-08-22 03:58:00,
2013-08-21 18:01:00,81.2,70.3,29.82,NNW,340,12.0,-999.0,69,0.00,,,0.00,PyWeather,2013-08-22 04:01:00,
2013-08-21 18:02:00,81.2,70.3,29.82,NNW,348,12.0,-999.0,69,0.00,,,0.00,PyWeather,2013-08-22 04:02:00,
2013-08-21 18:03:00,81.2,70.7,29.82,North,355,12.0,-999.0,70,0.00,,,0.00,PyWeather,2013-08-22 04:03:00,
2013-08-21 18:08:00,81.1,70.6,29.82,NNW,346,12.0,-999.0,70,0.00,,,0.00,PyWeather,2013-08-22 04:08:00,
2013-08-21 18:13:00,80.9,70.8,29.82,NNW,348,11.0,-999.0,71,0.00,,,0.00,PyWeather,2013-08-22 04:13:00,
2013-08-21 18:18:00,80.8,70.7,29.83,North,355,10.0,17.0,71,0.00,,,0.00,PyWeather,2013-08-22 04:18:00,
2013-08-21 18:23:00,80.8,70.7,29.83,North,355,9.0,17.0,71,0.00,,,0.00,PyWeather,2013-08-22 04:23:00,
2013-08-21 18:28:00,80.7,71.4,29.83,NNW,346,8.0,-999.0,73,0.00,,,0.00,PyWeather,2013-08-22 04:28:00,
2013-08-21 18:33:00,80.5,71.6,29.83,NNW,340,7.0,-999.0,74,0.00,,,0.00,PyWeather,2013-08-22 04:33:00,
2013-08-21 18:38:00,80.3,72.2,29.83,North,360,7.0,-999.0,76,0.00,,,0.00,PyWeather,2013-08-22 04:38:00,
2013-08-21 18:43:00,79.9,71.4,29.83,NNW,333,7.0,-999.0,75,0.00,,,0.00,PyWeather,2013-08-22 04:43:00,
2013-08-21 18:48:00,79.9,71.4,29.83,NNW,340,7.0,-999.0,75,0.00,,,0.00,PyWeather,2013-08-22 04:48:00,
2013-08-21 18:54:00,79.6,71.5,29.83,NNW,334,6.0,-999.0,76,0.00,,,0.00,PyWeather,2013-08-22 04:54:00,
2013-08-21 18:59:00,79.3,71.6,29.83,NNW,336,6.0,-999.0,77,0.00,,,0.00,PyWeather,2013-08-22 04:59:00,
2013-08-21 19:04:00,79.2,71.5,29.84,NNW,337,6.0,-999.0,77,0.00,,,0.00,PyWeather,2013-08-22 05:04:00,
2013-08-21 19:09:00,79.1,71.8,29.84,NNW,338,6.0,-999.0,78,0.00,,,0.00,PyWeather,2013-08-22 05:09:00,
2013-08-21 19:14:00,78.7,71.8,29.84,NNW,341,5.0,-999.0,79,0.00,,,0.00,PyWeather,2013-08-22 05:14:00,
2013-08-21 19:19:00,78.6,71.7,29.84,NNW,338,6.0,-999.0,79,0.00,,,0.00,PyWeather,2013-08-22 05:19:00,
2013-08-21 19:24:00,78.5,71.9,29.84,NNW,341,6.0,-999.0,80,0.00,,,0.00,PyWeather,2013-08-22 05:24:00,
2013-08-21 19:29:00,78.4,71.8,29.84,NNW,338,6.0,-999.0,80,0.00,,,0.00,PyWeather,2013-08-22 05:29:00,
2013-08-21 19:34:00,78.4,71.8,29.84,NNW,335,5.0,-999.0,80,0.00,,,0.00,PyWeather,2013-08-22 05:34:00,
2013-08-21 19:39:00,78.4,72.2,29.85,NNW,338,4.0,-999.0,81,0.00,,,0.00,PyWeather,2013-08-22 05:39:00,
2013-08-21 19:44:00,78.2,72.0,29.85,NNW,346,4.0,-999.0,81,0.00,,,0.00,PyWeather,2013-08-22 05:44:00,
2013-08-21 19:49:00,78.1,71.9,29.85,NNW,340,3.0,-999.0,81,0.00,,,0.00,PyWeather,2013-08-22 05:49:00,
2013-08-21 19:54:00,78.0,71.8,29.85,NNW,340,1.0,-999.0,81,0.00,,,0.00,PyWeather,2013-08-22 05:54:00,
2013-08-21 19:59:00,77.8,71.9,29.85,NNW,335,1.0,-999.0,82,0.00,,,0.00,PyWeather,2013-08-22 05:59:00,
2013-08-21 20:04:00,77.8,72.3,29.86,NNW,335,0.0,-999.0,83,0.00,,,0.00,PyWeather,2013-08-22 06:04:00,
2013-08-21 20:09:00,77.7,72.2,29.86,NNW,335,1.0,7.0,83,0.00,,,0.00,PyWeather,2013-08-22 06:09:00,
2013-08-21 20:14:00,77.6,72.1,29.86,NNW,344,2.0,7.0,83,0.00,,,0.00,PyWeather,2013-08-22 06:14:00,
2013-08-21 20:19:00,77.5,72.3,29.86,NW,319,4.0,11.0,84,0.00,,,0.00,PyWeather,2013-08-22 06:19:00,
2013-08-21 20:24:00,77.4,72.2,29.86,NNW,340,7.0,11.0,84,0.00,,,0.00,PyWeather,2013-08-22 06:24:00,
2013-08-21 20:29:00,77.4,72.2,29.86,North,360,7.0,-999.0,84,0.00,,,0.00,PyWeather,2013-08-22 06:29:00,
2013-08-21 20:34:00,77.3,72.1,29.86,NNW,340,7.0,-999.0,84,0.00,,,0.00,PyWeather,2013-08-22 06:34:00,
2013-08-21 20:39:00,77.3,72.1,29.87,NNW,338,7.0,-999.0,84,0.00,,,0.00,PyWeather,2013-08-22 06:39:00,
2013-08-21 20:44:00,77.3,72.1,29.87,NW,325,5.0,-999.0,84,0.00,,,0.00,PyWeather,2013-08-22 06:44:00,
2013-08-21 20:49:00,77.2,71.7,29.87,NW,315,5.0,-999.0,83,0.00,,,0.00,PyWeather,2013-08-22 06:49:00,
2013-08-21 20:54:00,77.1,71.6,29.87,NW,318,5.0,-999.0,83,0.00,,,0.00,PyWeather,2013-08-22 06:54:00,
2013-08-21 20:59:00,77.0,71.5,29.87,WNW,298,5.0,-999.0,83,0.00,,,0.00,PyWeather,2013-08-22 06:59:00,
2013-08-21 21:04:00,76.9,71.4,29.88,NW,313,5.0,-999.0,83,0.00,,,0.00,PyWeather,2013-08-22 07:04:00,
2013-08-21 21:09:00,76.9,71.4,29.88,NW,323,6.0,-999.0,83,0.00,,,0.00,PyWeather,2013-08-22 07:09:00,
2013-08-21 21:14:00,76.8,71.3,29.88,NW,320,7.0,-999.0,83,0.00,,,0.00,PyWeather,2013-08-22 07:14:00,
2013-08-21 21:19:00,76.7,71.2,29.88,NW,314,7.0,-999.0,83,0.00,,,0.00,PyWeather,2013-08-22 07:19:00,
2013-08-21 21:24:00,76.6,70.8,29.88,NW,326,6.0,-999.0,82,0.00,,,0.00,PyWeather,2013-08-22 07:24:00,
2013-08-21 21:29:00,76.5,70.7,29.88,NNW,338,5.0,-999.0,82,0.00,,,0.00,PyWeather,2013-08-22 07:29:00,
2013-08-21 21:34:00,76.5,71.0,29.88,NNW,331,6.0,-999.0,83,0.00,,,0.00,PyWeather,2013-08-22 07:34:00,
2013-08-21 21:39:00,76.6,70.8,29.88,NW,324,6.0,-999.0,82,0.00,,,0.00,PyWeather,2013-08-22 07:39:00,
2013-08-21 21:44:00,76.5,70.7,29.88,NNW,333,6.0,-999.0,82,0.00,,,0.00,PyWeather,2013-08-22 07:44:00,
2013-08-21 21:49:00,76.4,70.9,29.88,NNW,346,5.0,-999.0,83,0.00,,,0.00,PyWeather,2013-08-22 07:49:00,
2013-08-21 21:54:00,76.3,70.8,29.88,NNW,347,3.0,-999.0,83,0.00,,,0.00,PyWeather,2013-08-22 07:54:00,
2013-08-21 21:59:00,76.2,70.7,29.88,North,5,1.0,-999.0,83,0.00,,,0.00,PyWeather,2013-08-22 07:59:00,
2013-08-21 22:04:00,76.1,70.6,29.88,North,9,0.0,-999.0,83,0.00,,,0.00,PyWeather,2013-08-22 08:04:00,
2013-08-21 22:09:00,76.0,70.5,29.88,North,360,0.0,-999.0,83,0.00,,,0.00,PyWeather,2013-08-22 08:09:00,
2013-08-21 22:14:00,76.0,70.5,29.88,North,355,1.0,-999.0,83,0.00,,,0.00,PyWeather,2013-08-22 08:14:00,
2013-08-21 22:19:00,75.8,70.7,29.89,North,350,1.0,-999.0,84,0.00,,,0.00,PyWeather,2013-08-22 08:19:00,
2013-08-21 22:24:00,75.7,70.6,29.89,NNW,341,2.0,-999.0,84,0.00,,,0.00,PyWeather,2013-08-22 08:24:00,
2013-08-21 22:29:00,75.9,70.8,29.89,North,355,5.0,10.0,84,0.00,,,0.00,PyWeather,2013-08-22 08:29:00,
2013-08-21 22:34:00,75.9,70.4,29.88,North,350,7.0,10.0,83,0.00,,,0.00,PyWeather,2013-08-22 08:34:00,
2013-08-21 22:39:00,75.9,70.4,29.88,NNW,344,7.0,-999.0,83,0.00,,,0.00,PyWeather,2013-08-22 08:39:00,
2013-08-21 22:44:00,75.8,70.0,29.89,North,355,6.0,-999.0,82,0.00,,,0.00,PyWeather,2013-08-22 08:44:00,
2013-08-21 22:49:00,75.7,70.2,29.88,North,355,6.0,-999.0,83,0.00,,,0.00,PyWeather,2013-08-22 08:49:00,
2013-08-21 22:54:00,75.7,70.2,29.89,North,360,5.0,-999.0,83,0.00,,,0.00,PyWeather,2013-08-22 08:54:00,
2013-08-21 22:59:00,75.5,70.0,29.89,North,11,3.0,-999.0,83,0.00,,,0.00,PyWeather,2013-08-22 08:59:00,
2013-08-21 23:04:00,75.3,70.2,29.88,North,11,1.0,-999.0,84,0.00,,,0.00,PyWeather,2013-08-22 09:04:00,
2013-08-21 23:09:00,75.3,70.2,29.89,North,11,1.0,-999.0,84,0.00,,,0.00,PyWeather,2013-08-22 09:09:00,
2013-08-21 23:14:00,75.2,70.1,29.88,North,11,0.0,-999.0,84,0.00,,,0.00,PyWeather,2013-08-22 09:14:00,
2013-08-21 23:19:00,75.1,70.3,29.88,North,11,0.0,-999.0,85,0.00,,,0.00,PyWeather,2013-08-22 09:19:00,
2013-08-21 23:24:00,75.1,70.3,29.88,North,10,1.0,-999.0,85,0.00,,,0.00,PyWeather,2013-08-22 09:24:00,
2013-08-21 23:29:00,74.9,70.1,29.88,North,5,1.0,-999.0,85,0.00,,,0.00,PyWeather,2013-08-22 09:29:00,
2013-08-21 23:34:00,74.8,70.0,29.88,NNE,33,2.0,-999.0,85,0.00,,,0.00,PyWeather,2013-08-22 09:34:00,
2013-08-21 23:39:00,74.9,70.5,29.88,NNE,31,2.0,-999.0,86,0.00,,,0.00,PyWeather,2013-08-22 09:39:00,
2013-08-21 23:44:00,75.0,70.6,29.88,NE,38,1.0,-999.0,86,0.00,,,0.00,PyWeather,2013-08-22 09:44:00,
2013-08-21 23:49:00,74.8,70.0,29.88,NE,49,1.0,-999.0,85,0.00,,,0.00,PyWeather,2013-08-22 09:49:00,
2013-08-21 23:54:00,74.7,70.3,29.88,NE,50,0.0,-999.0,86,0.00,,,0.00,PyWeather,2013-08-22 09:54:00,
2013-08-21 23:59:00,74.7,70.3,29.88,NE,49,0.0,-999.0,86,0.00,,,0.00,PyWeather,2013-08-22 09:59:00,